sensor_id;sensor_type;location;lat;lon;timestamp;temperature;humidity
46590;DHT22;32313;48.722;9.362;2023-02-28T00:00:29;-2.90;98.80
46590;DHT22;32313;48.722;9.362;2023-02-28T00:02:55;-2.90;98.80
46590;DHT22;32313;48.722;9.362;2023-02-28T00:05:23;-2.90;99.10
46590;DHT22;32313;48.722;9.362;2023-02-28T00:07:49;-3.00;99.30
46590;DHT22;32313;48.722;9.362;2023-02-28T00:10:18;-3.00;99.50
46590;DHT22;32313;48.722;9.362;2023-02-28T00:12:47;-3.00;99.50
46590;DHT22;32313;48.722;9.362;2023-02-28T00:15:13;-3.00;99.70
46590;DHT22;32313;48.722;9.362;2023-02-28T00:17:39;-3.00;99.80
46590;DHT22;32313;48.722;9.362;2023-02-28T00:20:06;-3.10;99.90
46590;DHT22;32313;48.722;9.362;2023-02-28T00:22:36;-3.10;99.90
46590;DHT22;32313;48.722;9.362;2023-02-28T00:25:03;-3.00;99.90
46590;DHT22;32313;48.722;9.362;2023-02-28T00:27:29;-3.10;99.90
46590;DHT22;32313;48.722;9.362;2023-02-28T00:29:55;-3.10;99.90
46590;DHT22;32313;48.722;9.362;2023-02-28T00:32:21;-3.10;99.90
46590;DHT22;32313;48.722;9.362;2023-02-28T00:34:46;-3.10;99.90
46590;DHT22;32313;48.722;9.362;2023-02-28T00:37:14;-3.10;99.90
46590;DHT22;32313;48.722;9.362;2023-02-28T00:39:40;-3.20;99.90
46590;DHT22;32313;48.722;9.362;2023-02-28T00:42:07;-3.20;99.90
46590;DHT22;32313;48.722;9.362;2023-02-28T00:44:33;-3.20;99.90
46590;DHT22;32313;48.722;9.362;2023-02-28T00:47:00;-3.30;99.90
46590;DHT22;32313;48.722;9.362;2023-02-28T00:49:27;-3.30;99.90
46590;DHT22;32313;48.722;9.362;2023-02-28T00:51:54;-3.30;99.90
46590;DHT22;32313;48.722;9.362;2023-02-28T00:54:20;-3.30;99.90
46590;DHT22;32313;48.722;9.362;2023-02-28T00:56:47;-3.20;99.90
46590;DHT22;32313;48.722;9.362;2023-02-28T00:59:14;-3.20;99.90
46590;DHT22;32313;48.722;9.362;2023-02-28T01:01:40;-3.20;99.90
46590;DHT22;32313;48.722;9.362;2023-02-28T01:04:06;-3.10;99.90
46590;DHT22;32313;48.722;9.362;2023-02-28T01:06:32;-3.10;99.90
46590;DHT22;32313;48.722;9.362;2023-02-28T01:08:59;-3.10;99.90
46590;DHT22;32313;48.722;9.362;2023-02-28T01:11:25;-3.10;99.90
46590;DHT22;32313;48.722;9.362;2023-02-28T01:13:52;-3.10;99.90
46590;DHT22;32313;48.722;9.362;2023-02-28T01:16:18;-3.10;99.90
46590;DHT22;32313;48.722;9.362;2023-02-28T01:18:44;-3.00;99.90
46590;DHT22;32313;48.722;9.362;2023-02-28T01:21:14;-3.00;99.90
46590;DHT22;32313;48.722;9.362;2023-02-28T01:23:40;-3.00;99.90
46590;DHT22;32313;48.722;9.362;2023-02-28T01:26:16;-3.00;99.90
46590;DHT22;32313;48.722;9.362;2023-02-28T01:28:42;-3.10;99.90
46590;DHT22;32313;48.722;9.362;2023-02-28T01:31:09;-3.00;99.90
46590;DHT22;32313;48.722;9.362;2023-02-28T01:33:36;-3.00;99.90
46590;DHT22;32313;48.722;9.362;2023-02-28T01:36:09;-2.90;99.90
46590;DHT22;32313;48.722;9.362;2023-02-28T01:38:36;-3.00;99.90
46590;DHT22;32313;48.722;9.362;2023-02-28T01:41:02;-3.00;99.90
46590;DHT22;32313;48.722;9.362;2023-02-28T01:43:30;-3.10;99.90
46590;DHT22;32313;48.722;9.362;2023-02-28T01:45:57;-3.10;99.90
46590;DHT22;32313;48.722;9.362;2023-02-28T01:48:27;-3.10;99.90
46590;DHT22;32313;48.722;9.362;2023-02-28T01:50:57;-3.10;99.90
46590;DHT22;32313;48.722;9.362;2023-02-28T01:53:32;-3.10;99.90
46590;DHT22;32313;48.722;9.362;2023-02-28T01:55:59;-3.10;99.90
46590;DHT22;32313;48.722;9.362;2023-02-28T01:58:25;-3.10;99.90
46590;DHT22;32313;48.722;9.362;2023-02-28T02:00:51;-3.00;99.90
46590;DHT22;32313;48.722;9.362;2023-02-28T02:03:18;-3.10;99.90
46590;DHT22;32313;48.722;9.362;2023-02-28T02:05:45;-3.20;99.90
46590;DHT22;32313;48.722;9.362;2023-02-28T02:08:23;-3.20;99.90
46590;DHT22;32313;48.722;9.362;2023-02-28T02:10:52;-3.10;99.90
46590;DHT22;32313;48.722;9.362;2023-02-28T02:16:18;-3.00;99.90
46590;DHT22;32313;48.722;9.362;2023-02-28T02:18:53;-3.00;99.90
46590;DHT22;32313;48.722;9.362;2023-02-28T02:32:53;-2.90;99.90
46590;DHT22;32313;48.722;9.362;2023-02-28T02:43:46;-2.80;99.90
46590;DHT22;32313;48.722;9.362;2023-02-28T02:46:18;-2.70;99.90
46590;DHT22;32313;48.722;9.362;2023-02-28T02:48:46;-2.70;99.90
46590;DHT22;32313;48.722;9.362;2023-02-28T02:51:17;-2.70;99.90
46590;DHT22;32313;48.722;9.362;2023-02-28T02:56:18;-2.70;99.90
46590;DHT22;32313;48.722;9.362;2023-02-28T02:58:47;-2.70;99.90
46590;DHT22;32313;48.722;9.362;2023-02-28T03:01:18;-2.70;99.90
46590;DHT22;32313;48.722;9.362;2023-02-28T03:03:55;-2.70;99.90
46590;DHT22;32313;48.722;9.362;2023-02-28T03:06:21;-2.70;99.90
46590;DHT22;32313;48.722;9.362;2023-02-28T03:08:47;-2.70;99.90
46590;DHT22;32313;48.722;9.362;2023-02-28T03:11:14;-2.70;99.90
46590;DHT22;32313;48.722;9.362;2023-02-28T03:19:37;-2.70;99.90
46590;DHT22;32313;48.722;9.362;2023-02-28T03:33:42;-2.50;99.90
46590;DHT22;32313;48.722;9.362;2023-02-28T03:35:53;-2.40;99.90
46590;DHT22;32313;48.722;9.362;2023-02-28T03:41:51;-2.40;99.90
46590;DHT22;32313;48.722;9.362;2023-02-28T03:44:18;-2.40;99.90
46590;DHT22;32313;48.722;9.362;2023-02-28T03:46:57;-2.30;99.90
46590;DHT22;32313;48.722;9.362;2023-02-28T03:49:29;-2.30;99.90
46590;DHT22;32313;48.722;9.362;2023-02-28T03:51:56;-2.20;99.90
46590;DHT22;32313;48.722;9.362;2023-02-28T03:54:35;-2.20;99.90
46590;DHT22;32313;48.722;9.362;2023-02-28T03:57:28;-2.20;99.90
46590;DHT22;32313;48.722;9.362;2023-02-28T04:00:37;-2.20;99.90
46590;DHT22;32313;48.722;9.362;2023-02-28T04:02:57;-2.20;99.90
46590;DHT22;32313;48.722;9.362;2023-02-28T04:05:23;-2.20;99.90
46590;DHT22;32313;48.722;9.362;2023-02-28T04:07:49;-2.10;99.90
46590;DHT22;32313;48.722;9.362;2023-02-28T04:10:15;-2.10;99.90
46590;DHT22;32313;48.722;9.362;2023-02-28T04:12:41;-2.10;99.90
46590;DHT22;32313;48.722;9.362;2023-02-28T04:15:08;-2.10;99.90
46590;DHT22;32313;48.722;9.362;2023-02-28T04:17:33;-2.10;99.90
46590;DHT22;32313;48.722;9.362;2023-02-28T04:19:59;-2.00;99.90
46590;DHT22;32313;48.722;9.362;2023-02-28T04:22:25;-2.00;99.90
46590;DHT22;32313;48.722;9.362;2023-02-28T04:24:53;-2.00;99.90
46590;DHT22;32313;48.722;9.362;2023-02-28T04:27:20;-2.00;99.90
46590;DHT22;32313;48.722;9.362;2023-02-28T04:29:46;-2.00;99.90
46590;DHT22;32313;48.722;9.362;2023-02-28T04:32:12;-1.90;99.90
46590;DHT22;32313;48.722;9.362;2023-02-28T04:34:38;-2.00;99.90
46590;DHT22;32313;48.722;9.362;2023-02-28T04:37:04;-1.90;99.90
46590;DHT22;32313;48.722;9.362;2023-02-28T04:39:30;-1.90;99.90
46590;DHT22;32313;48.722;9.362;2023-02-28T04:41:56;-1.90;99.90
46590;DHT22;32313;48.722;9.362;2023-02-28T04:44:22;-1.90;99.90
46590;DHT22;32313;48.722;9.362;2023-02-28T04:46:48;-1.90;99.90
46590;DHT22;32313;48.722;9.362;2023-02-28T04:49:14;-1.90;99.90
46590;DHT22;32313;48.722;9.362;2023-02-28T04:51:41;-1.90;99.90
46590;DHT22;32313;48.722;9.362;2023-02-28T04:54:06;-1.90;99.90
46590;DHT22;32313;48.722;9.362;2023-02-28T04:56:32;-1.90;99.90
46590;DHT22;32313;48.722;9.362;2023-02-28T04:58:58;-1.90;99.90
46590;DHT22;32313;48.722;9.362;2023-02-28T05:01:29;-1.90;99.90
46590;DHT22;32313;48.722;9.362;2023-02-28T05:03:57;-1.90;99.90
46590;DHT22;32313;48.722;9.362;2023-02-28T05:06:25;-1.90;99.90
46590;DHT22;32313;48.722;9.362;2023-02-28T05:08:52;-1.90;99.90
46590;DHT22;32313;48.722;9.362;2023-02-28T05:11:27;-1.90;99.90
46590;DHT22;32313;48.722;9.362;2023-02-28T05:13:55;-1.90;99.90
46590;DHT22;32313;48.722;9.362;2023-02-28T05:16:21;-1.90;99.90
46590;DHT22;32313;48.722;9.362;2023-02-28T05:18:47;-1.80;99.90
46590;DHT22;32313;48.722;9.362;2023-02-28T05:21:31;-1.80;99.90
46590;DHT22;32313;48.722;9.362;2023-02-28T05:23:59;-1.80;99.90
46590;DHT22;32313;48.722;9.362;2023-02-28T05:26:25;-1.80;99.90
46590;DHT22;32313;48.722;9.362;2023-02-28T05:28:52;-1.80;99.90
46590;DHT22;32313;48.722;9.362;2023-02-28T05:31:18;-1.80;99.90
46590;DHT22;32313;48.722;9.362;2023-02-28T05:33:43;-1.80;99.90
46590;DHT22;32313;48.722;9.362;2023-02-28T05:36:09;-1.80;99.90
46590;DHT22;32313;48.722;9.362;2023-02-28T05:38:35;-1.70;99.90
46590;DHT22;32313;48.722;9.362;2023-02-28T05:41:08;-1.70;99.90
46590;DHT22;32313;48.722;9.362;2023-02-28T05:43:34;-1.70;99.90
46590;DHT22;32313;48.722;9.362;2023-02-28T05:46:05;-1.70;99.90
46590;DHT22;32313;48.722;9.362;2023-02-28T05:48:32;-1.70;99.90
46590;DHT22;32313;48.722;9.362;2023-02-28T05:50:58;-1.70;99.90
46590;DHT22;32313;48.722;9.362;2023-02-28T05:53:24;-1.70;99.90
46590;DHT22;32313;48.722;9.362;2023-02-28T05:55:49;-1.70;99.90
46590;DHT22;32313;48.722;9.362;2023-02-28T05:58:15;-1.60;99.90
46590;DHT22;32313;48.722;9.362;2023-02-28T06:00:41;-1.60;99.90
46590;DHT22;32313;48.722;9.362;2023-02-28T06:03:06;-1.60;99.90
46590;DHT22;32313;48.722;9.362;2023-02-28T06:05:32;-1.60;99.90
46590;DHT22;32313;48.722;9.362;2023-02-28T06:07:58;-1.60;99.90
46590;DHT22;32313;48.722;9.362;2023-02-28T06:10:24;-1.60;99.90
46590;DHT22;32313;48.722;9.362;2023-02-28T06:12:49;-1.60;99.90
46590;DHT22;32313;48.722;9.362;2023-02-28T06:15:16;-1.50;99.90
46590;DHT22;32313;48.722;9.362;2023-02-28T06:17:42;-1.60;99.90
46590;DHT22;32313;48.722;9.362;2023-02-28T06:20:10;-1.50;99.90
46590;DHT22;32313;48.722;9.362;2023-02-28T06:22:38;-1.50;99.90
46590;DHT22;32313;48.722;9.362;2023-02-28T06:25:05;-1.50;99.90
46590;DHT22;32313;48.722;9.362;2023-02-28T06:27:32;-1.50;99.90
46590;DHT22;32313;48.722;9.362;2023-02-28T06:29:58;-1.50;99.90
46590;DHT22;32313;48.722;9.362;2023-02-28T06:32:24;-1.50;99.90
46590;DHT22;32313;48.722;9.362;2023-02-28T06:34:49;-1.50;99.90
46590;DHT22;32313;48.722;9.362;2023-02-28T06:37:16;-1.50;99.90
46590;DHT22;32313;48.722;9.362;2023-02-28T06:39:42;-1.50;99.90
46590;DHT22;32313;48.722;9.362;2023-02-28T06:42:08;-1.40;99.90
46590;DHT22;32313;48.722;9.362;2023-02-28T06:44:34;-1.40;99.90
46590;DHT22;32313;48.722;9.362;2023-02-28T06:47:04;-1.40;99.90
46590;DHT22;32313;48.722;9.362;2023-02-28T06:49:34;-1.40;99.90
46590;DHT22;32313;48.722;9.362;2023-02-28T06:52:01;-1.40;99.90
46590;DHT22;32313;48.722;9.362;2023-02-28T06:54:27;-1.30;99.90
46590;DHT22;32313;48.722;9.362;2023-02-28T06:56:52;-1.30;99.90
46590;DHT22;32313;48.722;9.362;2023-02-28T06:59:20;-1.30;99.90
46590;DHT22;32313;48.722;9.362;2023-02-28T07:01:46;-1.30;99.90
46590;DHT22;32313;48.722;9.362;2023-02-28T07:04:12;-1.20;99.90
46590;DHT22;32313;48.722;9.362;2023-02-28T07:06:38;-1.20;99.90
46590;DHT22;32313;48.722;9.362;2023-02-28T07:09:04;-1.20;99.90
46590;DHT22;32313;48.722;9.362;2023-02-28T07:11:30;-1.20;99.90
46590;DHT22;32313;48.722;9.362;2023-02-28T07:13:57;-1.10;99.90
46590;DHT22;32313;48.722;9.362;2023-02-28T07:16:24;-1.10;99.90
46590;DHT22;32313;48.722;9.362;2023-02-28T07:18:52;-1.10;99.90
46590;DHT22;32313;48.722;9.362;2023-02-28T07:21:18;-1.10;99.90
46590;DHT22;32313;48.722;9.362;2023-02-28T07:23:44;-1.10;99.90
46590;DHT22;32313;48.722;9.362;2023-02-28T07:26:13;-1.00;99.90
46590;DHT22;32313;48.722;9.362;2023-02-28T07:28:41;-1.00;99.90
46590;DHT22;32313;48.722;9.362;2023-02-28T07:31:08;-1.00;99.90
46590;DHT22;32313;48.722;9.362;2023-02-28T07:33:35;-1.00;99.90
46590;DHT22;32313;48.722;9.362;2023-02-28T07:36:06;-0.90;99.90
46590;DHT22;32313;48.722;9.362;2023-02-28T07:38:36;-0.90;99.90
46590;DHT22;32313;48.722;9.362;2023-02-28T07:41:03;-0.90;99.90
46590;DHT22;32313;48.722;9.362;2023-02-28T07:43:32;-0.90;99.90
46590;DHT22;32313;48.722;9.362;2023-02-28T07:46:07;-0.80;99.90
46590;DHT22;32313;48.722;9.362;2023-02-28T07:48:33;-0.80;99.90
46590;DHT22;32313;48.722;9.362;2023-02-28T07:50:59;-0.80;99.90
46590;DHT22;32313;48.722;9.362;2023-02-28T07:53:26;-0.80;99.90
46590;DHT22;32313;48.722;9.362;2023-02-28T07:55:55;-0.80;99.90
46590;DHT22;32313;48.722;9.362;2023-02-28T07:58:21;-0.70;99.90
46590;DHT22;32313;48.722;9.362;2023-02-28T08:00:47;-0.60;99.90
46590;DHT22;32313;48.722;9.362;2023-02-28T08:03:13;-0.60;99.90
46590;DHT22;32313;48.722;9.362;2023-02-28T08:05:39;-0.60;99.90
46590;DHT22;32313;48.722;9.362;2023-02-28T08:08:06;-0.50;99.90
46590;DHT22;32313;48.722;9.362;2023-02-28T08:10:32;-0.50;99.90
46590;DHT22;32313;48.722;9.362;2023-02-28T08:12:58;-0.50;99.90
46590;DHT22;32313;48.722;9.362;2023-02-28T08:15:23;-0.40;99.90
46590;DHT22;32313;48.722;9.362;2023-02-28T08:17:49;-0.40;99.90
46590;DHT22;32313;48.722;9.362;2023-02-28T08:20:14;-0.40;99.90
46590;DHT22;32313;48.722;9.362;2023-02-28T08:22:40;-0.40;99.90
46590;DHT22;32313;48.722;9.362;2023-02-28T08:25:07;-0.30;99.90
46590;DHT22;32313;48.722;9.362;2023-02-28T08:27:33;-0.30;99.90
46590;DHT22;32313;48.722;9.362;2023-02-28T08:29:59;-0.20;99.90
46590;DHT22;32313;48.722;9.362;2023-02-28T08:32:24;-0.20;99.90
46590;DHT22;32313;48.722;9.362;2023-02-28T08:34:50;-0.20;99.90
46590;DHT22;32313;48.722;9.362;2023-02-28T08:37:16;-0.20;99.90
46590;DHT22;32313;48.722;9.362;2023-02-28T08:39:42;-0.10;99.90
46590;DHT22;32313;48.722;9.362;2023-02-28T08:42:08;-0.10;99.90
46590;DHT22;32313;48.722;9.362;2023-02-28T08:44:33;-0.10;99.90
46590;DHT22;32313;48.722;9.362;2023-02-28T08:46:59;-0.10;99.90
46590;DHT22;32313;48.722;9.362;2023-02-28T08:49:25;-0.10;99.90
46590;DHT22;32313;48.722;9.362;2023-02-28T08:51:50;-0.10;99.90
46590;DHT22;32313;48.722;9.362;2023-02-28T08:54:16;0.00;99.90
46590;DHT22;32313;48.722;9.362;2023-02-28T08:56:46;0.00;99.90
46590;DHT22;32313;48.722;9.362;2023-02-28T08:59:15;0.00;99.90
46590;DHT22;32313;48.722;9.362;2023-02-28T09:01:41;0.00;99.90
46590;DHT22;32313;48.722;9.362;2023-02-28T09:04:09;0.10;99.90
46590;DHT22;32313;48.722;9.362;2023-02-28T09:06:36;0.20;99.90
46590;DHT22;32313;48.722;9.362;2023-02-28T09:09:02;0.20;99.90
46590;DHT22;32313;48.722;9.362;2023-02-28T09:11:31;0.40;99.90
46590;DHT22;32313;48.722;9.362;2023-02-28T09:13:57;0.50;99.90
46590;DHT22;32313;48.722;9.362;2023-02-28T09:16:24;0.60;99.90
46590;DHT22;32313;48.722;9.362;2023-02-28T09:18:50;0.60;99.90
46590;DHT22;32313;48.722;9.362;2023-02-28T09:21:17;0.70;99.90
46590;DHT22;32313;48.722;9.362;2023-02-28T09:23:47;0.80;99.90
46590;DHT22;32313;48.722;9.362;2023-02-28T09:26:16;0.90;99.90
46590;DHT22;32313;48.722;9.362;2023-02-28T09:28:42;1.00;99.90
46590;DHT22;32313;48.722;9.362;2023-02-28T09:31:15;1.10;99.90
46590;DHT22;32313;48.722;9.362;2023-02-28T09:33:41;1.10;99.90
46590;DHT22;32313;48.722;9.362;2023-02-28T09:36:07;1.20;99.90
46590;DHT22;32313;48.722;9.362;2023-02-28T09:38:33;1.30;99.90
46590;DHT22;32313;48.722;9.362;2023-02-28T09:41:01;1.40;99.90
46590;DHT22;32313;48.722;9.362;2023-02-28T09:43:36;1.40;99.90
46590;DHT22;32313;48.722;9.362;2023-02-28T09:46:54;1.40;99.90
46590;DHT22;32313;48.722;9.362;2023-02-28T09:48:54;1.60;99.90
46590;DHT22;32313;48.722;9.362;2023-02-28T09:51:50;1.80;99.90
46590;DHT22;32313;48.722;9.362;2023-02-28T09:54:23;1.90;99.90
46590;DHT22;32313;48.722;9.362;2023-02-28T09:57:00;2.00;99.90
46590;DHT22;32313;48.722;9.362;2023-02-28T10:02:41;2.20;99.90
46590;DHT22;32313;48.722;9.362;2023-02-28T10:05:15;2.20;99.90
46590;DHT22;32313;48.722;9.362;2023-02-28T10:10:36;2.60;99.90
46590;DHT22;32313;48.722;9.362;2023-02-28T10:13:20;2.60;99.90
46590;DHT22;32313;48.722;9.362;2023-02-28T10:15:51;2.70;99.90
46590;DHT22;32313;48.722;9.362;2023-02-28T10:18:23;2.80;99.90
46590;DHT22;32313;48.722;9.362;2023-02-28T10:20:50;2.70;99.90
46590;DHT22;32313;48.722;9.362;2023-02-28T10:23:37;2.90;99.90
46590;DHT22;32313;48.722;9.362;2023-02-28T10:26:13;3.10;99.90
46590;DHT22;32313;48.722;9.362;2023-02-28T10:28:41;3.10;99.90
46590;DHT22;32313;48.722;9.362;2023-02-28T10:31:18;3.30;99.90
46590;DHT22;32313;48.722;9.362;2023-02-28T10:33:44;3.40;99.90
46590;DHT22;32313;48.722;9.362;2023-02-28T10:36:19;3.90;99.90
46590;DHT22;32313;48.722;9.362;2023-02-28T10:38:46;4.20;99.90
46590;DHT22;32313;48.722;9.362;2023-02-28T10:41:32;4.60;99.90
46590;DHT22;32313;48.722;9.362;2023-02-28T10:44:22;5.10;99.90
46590;DHT22;32313;48.722;9.362;2023-02-28T10:46:49;6.00;99.90
46590;DHT22;32313;48.722;9.362;2023-02-28T10:49:29;6.70;99.90
46590;DHT22;32313;48.722;9.362;2023-02-28T10:52:00;7.30;98.20
46590;DHT22;32313;48.722;9.362;2023-02-28T10:54:34;7.90;95.80
46590;DHT22;32313;48.722;9.362;2023-02-28T10:57:22;8.30;94.40
46590;DHT22;32313;48.722;9.362;2023-02-28T11:00:17;8.50;95.00
46590;DHT22;32313;48.722;9.362;2023-02-28T11:02:38;8.40;92.20
46590;DHT22;32313;48.722;9.362;2023-02-28T11:05:31;8.20;93.30
46590;DHT22;32313;48.722;9.362;2023-02-28T11:08:14;8.50;93.20
46590;DHT22;32313;48.722;9.362;2023-02-28T11:11:27;9.20;93.00
46590;DHT22;32313;48.722;9.362;2023-02-28T11:13:35;9.30;90.30
46590;DHT22;32313;48.722;9.362;2023-02-28T11:16:09;9.50;90.40
46590;DHT22;32313;48.722;9.362;2023-02-28T11:18:50;9.10;89.50
46590;DHT22;32313;48.722;9.362;2023-02-28T11:21:25;8.30;90.30
46590;DHT22;32313;48.722;9.362;2023-02-28T11:23:58;8.30;89.10
46590;DHT22;32313;48.722;9.362;2023-02-28T11:26:44;8.60;88.00
46590;DHT22;32313;48.722;9.362;2023-02-28T11:29:28;9.40;87.70
46590;DHT22;32313;48.722;9.362;2023-02-28T11:32:02;9.60;87.50
46590;DHT22;32313;48.722;9.362;2023-02-28T11:34:29;10.10;84.10
46590;DHT22;32313;48.722;9.362;2023-02-28T11:36:57;10.70;83.10
46590;DHT22;32313;48.722;9.362;2023-02-28T11:39:23;11.20;79.60
46590;DHT22;32313;48.722;9.362;2023-02-28T11:47:38;11.90;74.30
46590;DHT22;32313;48.722;9.362;2023-02-28T11:56:36;12.00;72.00
46590;DHT22;32313;48.722;9.362;2023-02-28T11:59:12;12.00;72.10
46590;DHT22;32313;48.722;9.362;2023-02-28T12:01:51;12.20;73.80
46590;DHT22;32313;48.722;9.362;2023-02-28T12:04:37;12.70;69.60
46590;DHT22;32313;48.722;9.362;2023-02-28T12:07:29;12.90;69.70
46590;DHT22;32313;48.722;9.362;2023-02-28T12:15:32;11.70;70.90
46590;DHT22;32313;48.722;9.362;2023-02-28T12:20:49;11.40;68.90
46590;DHT22;32313;48.722;9.362;2023-02-28T12:31:59;12.40;66.20
46590;DHT22;32313;48.722;9.362;2023-02-28T12:34:33;11.80;68.50
46590;DHT22;32313;48.722;9.362;2023-02-28T12:37:07;11.70;66.20
46590;DHT22;32313;48.722;9.362;2023-02-28T12:39:38;11.50;65.70
46590;DHT22;32313;48.722;9.362;2023-02-28T12:42:10;11.80;65.10
46590;DHT22;32313;48.722;9.362;2023-02-28T12:44:46;11.80;65.60
46590;DHT22;32313;48.722;9.362;2023-02-28T12:47:15;12.00;66.80
46590;DHT22;32313;48.722;9.362;2023-02-28T12:49:59;12.10;64.70
46590;DHT22;32313;48.722;9.362;2023-02-28T12:52:37;12.30;66.90
46590;DHT22;32313;48.722;9.362;2023-02-28T12:55:23;12.60;66.30
46590;DHT22;32313;48.722;9.362;2023-02-28T12:57:55;12.40;67.30
46590;DHT22;32313;48.722;9.362;2023-02-28T13:00:26;11.60;65.80
46590;DHT22;32313;48.722;9.362;2023-02-28T13:11:06;11.80;66.00
46590;DHT22;32313;48.722;9.362;2023-02-28T13:13:32;11.70;66.90
46590;DHT22;32313;48.722;9.362;2023-02-28T13:16:08;12.10;65.20
46590;DHT22;32313;48.722;9.362;2023-02-28T13:18:41;12.30;63.30
46590;DHT22;32313;48.722;9.362;2023-02-28T13:21:21;12.40;64.70
46590;DHT22;32313;48.722;9.362;2023-02-28T13:34:41;13.80;62.20
46590;DHT22;32313;48.722;9.362;2023-02-28T13:39:59;13.80;61.60
46590;DHT22;32313;48.722;9.362;2023-02-28T13:42:37;13.50;59.50
46590;DHT22;32313;48.722;9.362;2023-02-28T13:50:27;13.50;60.40
46590;DHT22;32313;48.722;9.362;2023-02-28T13:56:08;13.50;61.80
46590;DHT22;32313;48.722;9.362;2023-02-28T14:03:48;13.20;60.60
46590;DHT22;32313;48.722;9.362;2023-02-28T14:06:35;13.30;58.90
46590;DHT22;32313;48.722;9.362;2023-02-28T14:11:40;13.10;59.70
46590;DHT22;32313;48.722;9.362;2023-02-28T14:14:08;13.20;59.30
46590;DHT22;32313;48.722;9.362;2023-02-28T14:16:46;12.80;58.70
46590;DHT22;32313;48.722;9.362;2023-02-28T14:19:13;12.10;60.10
46590;DHT22;32313;48.722;9.362;2023-02-28T14:27:33;12.10;59.70
46590;DHT22;32313;48.722;9.362;2023-02-28T14:33:23;11.90;60.00
46590;DHT22;32313;48.722;9.362;2023-02-28T14:39:05;11.70;62.20
46590;DHT22;32313;48.722;9.362;2023-02-28T14:44:00;11.20;62.30
46590;DHT22;32313;48.722;9.362;2023-02-28T14:46:33;11.00;62.90
46590;DHT22;32313;48.722;9.362;2023-02-28T14:49:00;10.60;63.00
46590;DHT22;32313;48.722;9.362;2023-02-28T14:51:26;10.20;63.50
46590;DHT22;32313;48.722;9.362;2023-02-28T14:53:57;9.70;66.00
46590;DHT22;32313;48.722;9.362;2023-02-28T14:56:30;9.00;66.80
46590;DHT22;32313;48.722;9.362;2023-02-28T14:58:58;8.50;68.30
46590;DHT22;32313;48.722;9.362;2023-02-28T15:01:25;8.00;69.00
46590;DHT22;32313;48.722;9.362;2023-02-28T15:04:04;7.70;70.40
46590;DHT22;32313;48.722;9.362;2023-02-28T15:06:31;7.50;71.80
46590;DHT22;32313;48.722;9.362;2023-02-28T15:09:26;7.20;71.60
46590;DHT22;32313;48.722;9.362;2023-02-28T15:11:52;6.80;71.50
46590;DHT22;32313;48.722;9.362;2023-02-28T15:14:20;6.60;72.80
46590;DHT22;32313;48.722;9.362;2023-02-28T15:16:53;6.40;73.60
46590;DHT22;32313;48.722;9.362;2023-02-28T15:19:50;6.40;74.40
46590;DHT22;32313;48.722;9.362;2023-02-28T15:22:19;6.30;74.00
46590;DHT22;32313;48.722;9.362;2023-02-28T15:24:50;6.20;74.60
46590;DHT22;32313;48.722;9.362;2023-02-28T15:27:26;6.20;74.50
46590;DHT22;32313;48.722;9.362;2023-02-28T15:29:57;6.40;75.10
46590;DHT22;32313;48.722;9.362;2023-02-28T15:32:33;6.50;75.10
46590;DHT22;32313;48.722;9.362;2023-02-28T15:35:16;6.40;74.60
46590;DHT22;32313;48.722;9.362;2023-02-28T15:37:47;6.40;75.40
46590;DHT22;32313;48.722;9.362;2023-02-28T15:40:33;6.50;75.20
46590;DHT22;32313;48.722;9.362;2023-02-28T15:43:11;6.60;74.70
46590;DHT22;32313;48.722;9.362;2023-02-28T15:45:48;6.60;75.10
46590;DHT22;32313;48.722;9.362;2023-02-28T15:48:43;6.60;75.60
46590;DHT22;32313;48.722;9.362;2023-02-28T15:51:18;6.50;76.30
46590;DHT22;32313;48.722;9.362;2023-02-28T15:53:56;6.40;76.10
46590;DHT22;32313;48.722;9.362;2023-02-28T15:56:34;6.40;75.80
46590;DHT22;32313;48.722;9.362;2023-02-28T15:59:03;6.40;76.50
46590;DHT22;32313;48.722;9.362;2023-02-28T16:01:36;6.40;76.20
46590;DHT22;32313;48.722;9.362;2023-02-28T16:04:05;6.20;76.00
46590;DHT22;32313;48.722;9.362;2023-02-28T16:06:37;5.90;77.00
46590;DHT22;32313;48.722;9.362;2023-02-28T16:09:05;5.60;77.80
46590;DHT22;32313;48.722;9.362;2023-02-28T16:11:35;5.30;78.60
46590;DHT22;32313;48.722;9.362;2023-02-28T16:14:03;5.00;79.00
46590;DHT22;32313;48.722;9.362;2023-02-28T16:16:28;4.90;79.70
46590;DHT22;32313;48.722;9.362;2023-02-28T16:18:56;4.70;80.40
46590;DHT22;32313;48.722;9.362;2023-02-28T16:21:25;4.60;81.00
46590;DHT22;32313;48.722;9.362;2023-02-28T16:23:51;4.40;81.20
46590;DHT22;32313;48.722;9.362;2023-02-28T16:26:24;4.30;81.80
46590;DHT22;32313;48.722;9.362;2023-02-28T16:28:51;4.20;82.30
46590;DHT22;32313;48.722;9.362;2023-02-28T16:31:17;4.20;82.50
46590;DHT22;32313;48.722;9.362;2023-02-28T16:33:44;4.00;82.80
46590;DHT22;32313;48.722;9.362;2023-02-28T16:36:19;3.90;83.50
46590;DHT22;32313;48.722;9.362;2023-02-28T16:38:45;3.80;84.10
46590;DHT22;32313;48.722;9.362;2023-02-28T16:41:20;3.60;84.30
46590;DHT22;32313;48.722;9.362;2023-02-28T16:43:48;3.50;84.90
46590;DHT22;32313;48.722;9.362;2023-02-28T16:46:17;3.40;85.40
46590;DHT22;32313;48.722;9.362;2023-02-28T16:48:44;3.30;85.70
46590;DHT22;32313;48.722;9.362;2023-02-28T16:51:14;3.20;86.00
46590;DHT22;32313;48.722;9.362;2023-02-28T16:53:40;3.10;86.40
46590;DHT22;32313;48.722;9.362;2023-02-28T16:56:06;2.90;87.20
46590;DHT22;32313;48.722;9.362;2023-02-28T16:58:32;2.80;87.20
46590;DHT22;32313;48.722;9.362;2023-02-28T17:01:02;2.70;88.00
46590;DHT22;32313;48.722;9.362;2023-02-28T17:03:28;2.60;88.50
46590;DHT22;32313;48.722;9.362;2023-02-28T17:05:55;2.50;88.70
46590;DHT22;32313;48.722;9.362;2023-02-28T17:08:20;2.40;88.80
46590;DHT22;32313;48.722;9.362;2023-02-28T17:10:46;2.30;89.10
46590;DHT22;32313;48.722;9.362;2023-02-28T17:13:12;2.20;89.60
46590;DHT22;32313;48.722;9.362;2023-02-28T17:15:38;2.10;89.80
46590;DHT22;32313;48.722;9.362;2023-02-28T17:18:04;2.00;89.70
46590;DHT22;32313;48.722;9.362;2023-02-28T17:20:30;1.90;90.20
46590;DHT22;32313;48.722;9.362;2023-02-28T17:22:56;1.90;90.50
46590;DHT22;32313;48.722;9.362;2023-02-28T17:25:23;1.80;90.90
46590;DHT22;32313;48.722;9.362;2023-02-28T17:27:49;1.70;90.60
46590;DHT22;32313;48.722;9.362;2023-02-28T17:30:35;1.70;90.90
46590;DHT22;32313;48.722;9.362;2023-02-28T17:33:00;1.60;91.10
46590;DHT22;32313;48.722;9.362;2023-02-28T17:35:26;1.50;91.30
46590;DHT22;32313;48.722;9.362;2023-02-28T17:37:52;1.50;91.20
46590;DHT22;32313;48.722;9.362;2023-02-28T17:40:21;1.40;91.60
46590;DHT22;32313;48.722;9.362;2023-02-28T17:42:47;1.40;91.60
46590;DHT22;32313;48.722;9.362;2023-02-28T17:45:14;1.40;91.70
46590;DHT22;32313;48.722;9.362;2023-02-28T17:47:42;1.40;92.00
46590;DHT22;32313;48.722;9.362;2023-02-28T17:50:18;1.40;92.10
46590;DHT22;32313;48.722;9.362;2023-02-28T17:52:44;1.30;92.20
46590;DHT22;32313;48.722;9.362;2023-02-28T17:55:10;1.30;92.20
46590;DHT22;32313;48.722;9.362;2023-02-28T17:57:35;1.20;92.50
46590;DHT22;32313;48.722;9.362;2023-02-28T18:00:01;1.20;92.70
46590;DHT22;32313;48.722;9.362;2023-02-28T18:02:37;1.20;92.50
46590;DHT22;32313;48.722;9.362;2023-02-28T18:05:02;1.10;92.70
46590;DHT22;32313;48.722;9.362;2023-02-28T18:07:29;1.20;92.80